Time;durP1;ratioP1;P1;durP2;ratioP2;P2;SDS_P1;SDS_P2;PMS_P1;PMS_P2;Temp;Humidity;BMP_temperature;BMP_pressure;BME280_temperature;BME280_humidity;BME280_pressure;Samples;Min_cycle;Max_cycle;Signal;HPM_P1;HPM_P2
2023/09/30 00:00:22;;;;;;;1.38;1.27;;;21.00;71.30;;;;;;5092100;28;20469;-78
2023/09/30 00:02:48;;;;;;;1.35;1.13;;;21.00;71.50;;;;;;5093967;28;20053;-78
2023/09/30 00:05:14;;;;;;;1.45;1.25;;;21.00;71.40;;;;;;5088219;28;20113;-78
2023/09/30 00:07:40;;;;;;;1.20;1.10;;;21.00;72.30;;;;;;5089300;28;20471;-78
2023/09/30 00:10:08;;;;;;;1.13;1.02;;;21.00;71.30;;;;;;5087829;28;20033;-78
2023/09/30 00:12:33;;;;;;;1.27;1.17;;;21.00;71.40;;;;;;5070985;28;20065;-78
2023/09/30 00:14:59;;;;;;;1.30;1.20;;;21.00;71.50;;;;;;5086822;28;20060;-78
2023/09/30 00:17:24;;;;;;;1.10;0.90;;;21.00;71.50;;;;;;5081317;28;20048;-78
2023/09/30 00:19:50;;;;;;;1.48;1.38;;;21.00;71.20;;;;;;5091809;28;20075;-78
2023/09/30 00:22:16;;;;;;;1.67;1.10;;;21.00;71.50;;;;;;5088477;28;20080;-78
2023/09/30 00:24:41;;;;;;;1.55;1.10;;;21.00;71.40;;;;;;5087309;28;20074;-78
2023/09/30 00:27:07;;;;;;;1.25;1.15;;;21.00;72.40;;;;;;5087429;28;20040;-78
2023/09/30 00:29:33;;;;;;;1.50;1.10;;;21.00;71.50;;;;;;5086634;28;20048;-78
2023/09/30 00:31:59;;;;;;;1.20;1.02;;;20.90;71.50;;;;;;5090983;28;20040;-77
2023/09/30 00:34:24;;;;;;;1.60;0.80;;;20.90;71.30;;;;;;5090958;28;20047;-79
2023/09/30 00:36:50;;;;;;;1.40;1.30;;;21.00;71.40;;;;;;5089646;28;20032;-78
2023/09/30 00:39:16;;;;;;;1.10;1.10;;;20.90;71.60;;;;;;5091429;28;20040;-78
2023/09/30 00:41:41;;;;;;;1.15;1.05;;;20.90;71.50;;;;;;5091833;28;20390;-78
2023/09/30 00:44:08;;;;;;;0.73;0.73;;;20.90;72.50;;;;;;5088842;28;20029;-78
2023/09/30 00:46:34;;;;;;;1.40;1.30;;;21.00;71.60;;;;;;5092945;28;20413;-78
2023/09/30 00:49:00;;;;;;;1.25;1.15;;;21.00;71.40;;;;;;5063031;28;20125;-78
2023/09/30 00:51:26;;;;;;;1.05;1.05;;;21.00;71.70;;;;;;5089312;28;20468;-78
2023/09/30 00:53:52;;;;;;;1.45;1.30;;;20.90;71.60;;;;;;5088801;28;20040;-78
2023/09/30 00:56:18;;;;;;;0.85;0.85;;;20.90;71.70;;;;;;5090965;28;20064;-78
2023/09/30 00:58:44;;;;;;;1.30;1.20;;;20.90;71.70;;;;;;5082511;28;20426;-78
2023/09/30 01:01:10;;;;;;;1.38;1.27;;;20.90;71.70;;;;;;5073169;28;20089;-78
2023/09/30 01:03:36;;;;;;;1.02;0.93;;;20.90;71.80;;;;;;5088307;28;20446;-78
2023/09/30 01:06:02;;;;;;;1.40;0.85;;;20.90;71.60;;;;;;5084696;28;20047;-78
2023/09/30 01:08:28;;;;;;;1.20;1.10;;;20.90;71.60;;;;;;5089548;28;20041;-78
2023/09/30 01:10:54;;;;;;;1.40;1.13;;;20.90;71.60;;;;;;5079916;28;20040;-78
2023/09/30 01:13:19;;;;;;;1.20;1.05;;;20.90;71.50;;;;;;5088402;28;20037;-78
2023/09/30 01:15:46;;;;;;;0.80;0.80;;;20.90;71.80;;;;;;5094018;28;20040;-78
2023/09/30 01:18:12;;;;;;;1.63;0.95;;;20.90;71.60;;;;;;5085555;28;20052;-78
2023/09/30 01:20:38;;;;;;;1.27;1.17;;;20.90;71.80;;;;;;5092390;28;20070;-78
2023/09/30 01:23:03;;;;;;;0.80;0.80;;;20.90;71.90;;;;;;5069472;28;20052;-78
2023/09/30 01:25:30;;;;;;;1.42;1.00;;;20.90;71.70;;;;;;5064922;28;20050;-78
2023/09/30 01:27:55;;;;;;;1.40;1.27;;;20.90;71.60;;;;;;5074057;28;20047;-78
2023/09/30 01:30:23;;;;;;;0.93;0.80;;;20.90;71.60;;;;;;5088804;28;20035;-78
2023/09/30 01:32:48;;;;;;;0.85;0.82;;;20.90;71.80;;;;;;5078018;28;20039;-78
2023/09/30 01:35:14;;;;;;;1.27;1.05;;;20.90;71.60;;;;;;5092348;28;20037;-78
2023/09/30 01:37:40;;;;;;;1.15;0.90;;;20.90;71.70;;;;;;5092600;28;20122;-78
2023/09/30 01:40:11;;;;;;;1.30;0.70;;;20.90;71.80;;;;;;5085519;28;20477;-78
2023/09/30 01:42:37;;;;;;;0.73;0.73;;;20.90;71.80;;;;;;5085800;28;20047;-78
2023/09/30 01:45:03;;;;;;;1.17;0.77;;;20.90;71.80;;;;;;5083969;28;20048;-78
2023/09/30 01:47:29;;;;;;;1.00;0.98;;;20.90;71.80;;;;;;5074610;28;20461;-78
2023/09/30 01:49:54;;;;;;;0.95;0.70;;;20.90;71.80;;;;;;5091064;28;20557;-78
2023/09/30 01:52:20;;;;;;;0.80;0.80;;;20.90;71.70;;;;;;5086221;28;20405;-78
2023/09/30 01:54:46;;;;;;;1.10;1.00;;;20.90;71.80;;;;;;5078199;28;20051;-77
2023/09/30 01:57:11;;;;;;;1.30;1.20;;;20.90;71.80;;;;;;5087112;28;20039;-78
2023/09/30 01:59:37;;;;;;;3.63;1.17;;;20.90;71.90;;;;;;5081878;28;20532;-78
2023/09/30 02:02:02;;;;;;;0.85;0.60;;;20.90;71.70;;;;;;5086275;28;20056;-78
2023/09/30 02:04:29;;;;;;;1.13;1.02;;;20.90;72.00;;;;;;5089257;28;20071;-78
2023/09/30 02:06:54;;;;;;;1.83;1.23;;;20.90;72.70;;;;;;5085740;28;20048;-78
2023/09/30 02:09:20;;;;;;;1.08;0.98;;;20.90;71.90;;;;;;5084277;28;20031;-78
2023/09/30 02:11:45;;;;;;;1.67;0.70;;;20.90;71.90;;;;;;5091459;28;20059;-78
2023/09/30 02:14:11;;;;;;;1.10;0.80;;;20.90;71.90;;;;;;5071105;28;20037;-78
2023/09/30 02:16:38;;;;;;;0.77;0.68;;;20.90;71.60;;;;;;5083435;28;20044;-78
2023/09/30 02:19:04;;;;;;;0.70;0.70;;;20.90;71.70;;;;;;5078593;28;20074;-78
2023/09/30 02:21:29;;;;;;;0.75;0.73;;;20.90;71.80;;;;;;5083557;28;20146;-78
2023/09/30 02:23:55;;;;;;;1.58;1.02;;;20.90;71.70;;;;;;5088210;28;20494;-78
2023/09/30 02:26:21;;;;;;;0.75;0.65;;;20.90;71.90;;;;;;5083905;28;20394;-78
2023/09/30 02:28:47;;;;;;;0.90;0.90;;;20.90;71.90;;;;;;5092751;28;20040;-78
2023/09/30 02:31:12;;;;;;;0.75;0.75;;;20.90;71.90;;;;;;5084351;28;20048;-78
2023/09/30 02:33:39;;;;;;;0.80;0.80;;;20.90;71.80;;;;;;5087272;28;20133;-78
2023/09/30 02:36:08;;;;;;;0.88;0.88;;;20.90;71.90;;;;;;5083402;28;20118;-77
2023/09/30 02:38:34;;;;;;;1.05;0.93;;;20.80;71.80;;;;;;5093572;28;20104;-78
2023/09/30 02:41:00;;;;;;;1.02;0.85;;;20.80;71.90;;;;;;5092195;28;20035;-78
2023/09/30 02:43:25;;;;;;;0.73;0.70;;;20.80;71.90;;;;;;5094684;28;20425;-78
2023/09/30 02:45:51;;;;;;;0.75;0.55;;;20.80;71.90;;;;;;5090254;28;20501;-78
2023/09/30 02:48:16;;;;;;;0.95;0.77;;;20.90;71.80;;;;;;5089240;28;20040;-78
2023/09/30 02:50:44;;;;;;;0.73;0.73;;;20.80;72.00;;;;;;5084567;28;20083;-78
2023/09/30 02:53:11;;;;;;;0.73;0.70;;;20.80;71.90;;;;;;5097030;28;20205;-78
2023/09/30 02:55:36;;;;;;;0.68;0.60;;;20.80;71.70;;;;;;5102947;28;20118;-77
2023/09/30 02:58:02;;;;;;;0.80;0.70;;;20.90;71.90;;;;;;5094278;28;20115;-78
2023/09/30 03:00:32;;;;;;;0.55;0.55;;;20.80;71.60;;;;;;5089427;28;21798;-78
2023/09/30 03:02:59;;;;;;;0.68;0.55;;;20.90;71.90;;;;;;5097731;28;20040;-78
2023/09/30 03:05:24;;;;;;;0.75;0.75;;;20.80;71.60;;;;;;5081408;28;20127;-78
2023/09/30 03:07:54;;;;;;;0.70;0.70;;;20.80;72.40;;;;;;5098125;28;20114;-78
2023/09/30 03:10:20;;;;;;;0.57;0.57;;;20.80;71.70;;;;;;5083493;28;20067;-78
2023/09/30 03:12:49;;;;;;;0.60;0.60;;;20.80;71.30;;;;;;5081567;28;20059;-78
2023/09/30 03:15:16;;;;;;;1.10;1.00;;;20.80;71.60;;;;;;5078647;28;20409;-78
2023/09/30 03:17:42;;;;;;;0.98;0.95;;;20.80;71.50;;;;;;5092743;28;20028;-78
2023/09/30 03:20:10;;;;;;;0.65;0.60;;;20.80;71.60;;;;;;5094685;28;20101;-78
2023/09/30 03:22:36;;;;;;;1.30;0.85;;;20.80;71.80;;;;;;5096481;28;20638;-77
2023/09/30 03:25:02;;;;;;;0.50;0.50;;;20.80;71.90;;;;;;5086952;28;20040;-78
2023/09/30 03:27:27;;;;;;;0.70;0.70;;;20.80;71.70;;;;;;5082991;28;20036;-77
2023/09/30 03:29:53;;;;;;;0.70;0.68;;;20.80;71.90;;;;;;5086563;28;20043;-78
2023/09/30 03:32:18;;;;;;;0.63;0.60;;;20.80;71.50;;;;;;5080111;28;20043;-78
2023/09/30 03:34:46;;;;;;;0.93;0.70;;;20.80;71.70;;;;;;5092764;28;20050;-78
2023/09/30 03:37:11;;;;;;;0.70;0.70;;;20.80;71.70;;;;;;5091293;28;20063;-78
2023/09/30 03:39:38;;;;;;;0.63;0.60;;;20.80;71.50;;;;;;5094855;28;20513;-78
2023/09/30 03:42:03;;;;;;;0.60;0.60;;;20.80;71.30;;;;;;5086666;28;20036;-78
2023/09/30 03:44:29;;;;;;;0.60;0.60;;;20.80;71.80;;;;;;5081566;28;20881;-78
2023/09/30 03:46:54;;;;;;;0.43;0.43;;;20.80;71.70;;;;;;5095189;28;20035;-78
2023/09/30 03:49:20;;;;;;;0.60;0.60;;;20.80;71.60;;;;;;5085777;28;20036;-78
2023/09/30 03:51:46;;;;;;;0.80;0.77;;;20.80;71.30;;;;;;5078704;28;20048;-78
2023/09/30 03:54:12;;;;;;;0.40;0.40;;;20.80;71.50;;;;;;5088769;28;20047;-78
2023/09/30 03:56:41;;;;;;;0.70;0.70;;;20.80;71.40;;;;;;5079293;28;20051;-77
2023/09/30 03:59:08;;;;;;;0.90;0.90;;;20.80;71.30;;;;;;5083404;28;20044;-78
2023/09/30 04:01:34;;;;;;;0.52;0.52;;;20.80;71.30;;;;;;5075154;28;20131;-78
2023/09/30 04:04:00;;;;;;;1.40;0.63;;;20.80;71.40;;;;;;5095354;28;20118;-78
2023/09/30 04:06:26;;;;;;;0.75;0.68;;;20.80;71.40;;;;;;5088916;28;20449;-78
2023/09/30 04:08:51;;;;;;;0.77;0.77;;;20.80;71.40;;;;;;5091200;28;20572;-78
2023/09/30 04:11:19;;;;;;;0.50;0.50;;;20.80;71.30;;;;;;5072644;28;20614;-78
2023/09/30 04:13:45;;;;;;;0.73;0.60;;;20.80;71.30;;;;;;5094844;28;20039;-78
2023/09/30 04:16:10;;;;;;;0.95;0.70;;;20.80;71.20;;;;;;5093683;28;20387;-77
2023/09/30 04:18:36;;;;;;;0.68;0.60;;;20.70;71.40;;;;;;5080588;28;20454;-77
2023/09/30 04:21:04;;;;;;;1.08;0.70;;;20.80;71.30;;;;;;5080414;28;20044;-77
2023/09/30 04:23:30;;;;;;;0.80;0.52;;;20.70;71.50;;;;;;5093390;28;20906;-78
2023/09/30 04:25:55;;;;;;;0.73;0.73;;;20.70;71.50;;;;;;5085822;28;20043;-78
2023/09/30 04:28:21;;;;;;;0.70;0.70;;;20.70;71.50;;;;;;5082552;28;20066;-78
2023/09/30 04:30:51;;;;;;;0.45;0.32;;;20.70;71.50;;;;;;5093167;28;20048;-78
2023/09/30 04:33:17;;;;;;;0.65;0.60;;;20.80;71.30;;;;;;5093154;28;20048;-78
2023/09/30 04:35:44;;;;;;;0.70;0.60;;;20.70;71.10;;;;;;5089906;28;20044;-78
2023/09/30 04:38:10;;;;;;;0.75;0.68;;;20.80;71.50;;;;;;5091779;28;20049;-78
2023/09/30 04:40:37;;;;;;;1.25;0.88;;;20.70;71.50;;;;;;5089556;28;20036;-78
2023/09/30 04:43:03;;;;;;;0.88;0.70;;;20.70;71.30;;;;;;5087753;28;20068;-77
2023/09/30 04:45:28;;;;;;;0.73;0.65;;;20.70;71.10;;;;;;5088312;28;20093;-78
2023/09/30 04:47:56;;;;;;;0.50;0.50;;;20.70;71.60;;;;;;5083874;28;20043;-78
2023/09/30 04:50:21;;;;;;;1.60;0.80;;;20.80;71.30;;;;;;5078426;28;20446;-78
2023/09/30 04:52:48;;;;;;;0.80;0.80;;;20.70;71.50;;;;;;5080490;28;20523;-77
2023/09/30 04:55:16;;;;;;;0.65;0.65;;;20.80;71.50;;;;;;5088538;28;20032;-78
2023/09/30 04:57:44;;;;;;;0.70;0.70;;;20.70;71.30;;;;;;5082543;28;20040;-78
2023/09/30 05:00:14;;;;;;;0.50;0.50;;;20.70;71.40;;;;;;5078291;28;20135;-78
2023/09/30 05:02:40;;;;;;;2.00;0.80;;;20.70;71.10;;;;;;5092327;28;20134;-78
2023/09/30 05:05:06;;;;;;;0.77;0.50;;;20.70;71.40;;;;;;5084182;28;20131;-77
2023/09/30 05:07:34;;;;;;;1.00;0.60;;;20.70;71.10;;;;;;5076884;28;20054;-78
2023/09/30 05:10:00;;;;;;;0.80;0.80;;;20.70;71.30;;;;;;5088881;28;20055;-78
2023/09/30 05:12:26;;;;;;;1.27;0.63;;;20.70;71.60;;;;;;5089521;28;20505;-78
2023/09/30 05:14:52;;;;;;;0.65;0.55;;;20.70;71.10;;;;;;5076683;28;20024;-78
2023/09/30 05:17:17;;;;;;;0.85;0.60;;;20.70;71.00;;;;;;5074680;28;20037;-78
2023/09/30 05:19:44;;;;;;;0.68;0.68;;;20.70;71.00;;;;;;4734265;28;9999815;-79
2023/09/30 05:22:10;;;;;;;0.75;0.70;;;20.70;71.10;;;;;;5085962;28;20070;-78
2023/09/30 05:24:35;;;;;;;0.70;0.50;;;20.70;71.10;;;;;;5086381;28;20037;-78
2023/09/30 05:27:01;;;;;;;0.95;0.70;;;20.70;70.90;;;;;;5085619;28;20078;-79
2023/09/30 05:29:27;;;;;;;0.60;0.50;;;20.80;71.00;;;;;;5078873;28;20103;-78
2023/09/30 05:31:53;;;;;;;1.20;0.63;;;20.80;71.10;;;;;;5076641;28;20162;-78
2023/09/30 05:34:18;;;;;;;0.60;0.60;;;20.80;70.90;;;;;;5086520;28;20421;-78
2023/09/30 05:36:44;;;;;;;0.45;0.40;;;20.80;71.10;;;;;;5074608;28;20055;-78
2023/09/30 05:39:10;;;;;;;0.68;0.63;;;20.80;71.70;;;;;;5081796;28;20084;-79
2023/09/30 05:41:37;;;;;;;1.73;0.70;;;20.70;71.00;;;;;;5080532;28;20047;-78
2023/09/30 05:44:03;;;;;;;0.85;0.65;;;20.70;71.10;;;;;;5059310;28;20653;-78
2023/09/30 05:46:30;;;;;;;0.47;0.30;;;20.80;71.40;;;;;;5063013;28;20559;-78
2023/09/30 05:48:56;;;;;;;0.98;0.63;;;20.80;71.40;;;;;;5073248;28;20412;-78
2023/09/30 05:51:22;;;;;;;0.75;0.75;;;20.70;71.10;;;;;;5082424;28;20040;-79
2023/09/30 05:53:48;;;;;;;0.63;0.52;;;20.70;71.50;;;;;;5069086;28;20443;-78
2023/09/30 05:56:15;;;;;;;1.05;0.63;;;20.70;71.10;;;;;;5078219;28;20043;-82
2023/09/30 05:58:43;;;;;;;0.63;0.63;;;20.70;71.40;;;;;;5068833;28;20045;-81
2023/09/30 06:01:12;;;;;;;0.57;0.50;;;20.70;71.20;;;;;;5048403;28;20048;-81
2023/09/30 06:03:41;;;;;;;0.70;0.70;;;20.80;71.10;;;;;;5070232;28;20032;-81
2023/09/30 06:06:15;;;;;;;1.80;1.08;;;20.80;71.00;;;;;;5074037;28;20039;-81
2023/09/30 06:08:47;;;;;;;0.85;0.70;;;20.70;70.40;;;;;;5057730;28;20048;-81
2023/09/30 06:11:19;;;;;;;1.83;1.00;;;20.70;69.50;;;;;;5055561;28;20437;-80
2023/09/30 06:13:47;;;;;;;1.88;1.23;;;20.60;66.50;;;;;;5105899;28;20055;-81
2023/09/30 06:16:13;;;;;;;1.95;1.63;;;20.40;65.00;;;;;;5066038;28;20055;-80
2023/09/30 06:18:39;;;;;;;2.22;1.30;;;20.30;64.50;;;;;;5084619;28;20047;-81
2023/09/30 06:21:04;;;;;;;4.03;1.42;;;20.10;64.70;;;;;;5087161;28;20040;-81
2023/09/30 06:23:30;;;;;;;2.65;1.70;;;20.10;64.50;;;;;;5083798;28;20593;-80
2023/09/30 06:25:57;;;;;;;1.15;0.93;;;20.00;64.80;;;;;;5102332;28;20177;-81
2023/09/30 06:28:25;;;;;;;2.33;1.30;;;19.90;64.60;;;;;;5073529;28;20052;-80
2023/09/30 06:30:52;;;;;;;4.85;1.70;;;19.90;64.50;;;;;;5084714;28;20101;-80
2023/09/30 06:33:17;;;;;;;2.10;1.42;;;19.80;64.40;;;;;;5077002;28;20047;-81
2023/09/30 06:35:50;;;;;;;3.08;1.45;;;19.80;64.50;;;;;;5088574;28;20112;-81
2023/09/30 06:38:19;;;;;;;1.83;1.45;;;19.80;64.50;;;;;;5060776;28;20056;-81
2023/09/30 06:40:47;;;;;;;3.35;1.40;;;19.70;64.60;;;;;;5087699;28;20118;-82
2023/09/30 06:43:15;;;;;;;3.17;1.58;;;19.70;64.60;;;;;;5079798;28;20143;-82
2023/09/30 06:45:44;;;;;;;3.88;1.45;;;19.70;64.70;;;;;;5073974;28;20036;-82
2023/09/30 06:48:13;;;;;;;3.92;1.60;;;19.70;64.80;;;;;;5081933;28;20039;-82
2023/09/30 06:50:48;;;;;;;2.00;1.35;;;19.70;64.60;;;;;;5086255;28;20072;-82
2023/09/30 06:53:17;;;;;;;1.90;1.45;;;19.60;64.80;;;;;;5087978;28;20044;-82
2023/09/30 06:55:45;;;;;;;1.73;1.30;;;19.60;65.00;;;;;;5090535;28;20064;-82
2023/09/30 06:58:11;;;;;;;1.98;1.60;;;19.50;65.40;;;;;;5093830;28;20477;-82
2023/09/30 07:00:38;;;;;;;4.05;2.08;;;19.50;65.50;;;;;;5079416;28;20131;-82
2023/09/30 07:03:03;;;;;;;2.88;1.75;;;19.50;65.60;;;;;;5072014;28;20043;-82
2023/09/30 07:05:29;;;;;;;2.75;1.63;;;19.50;65.90;;;;;;5103287;27;20074;-82
2023/09/30 07:07:55;;;;;;;2.30;1.50;;;19.40;66.80;;;;;;5084351;28;20070;-85
2023/09/30 07:10:20;;;;;;;1.92;1.40;;;19.40;66.10;;;;;;5080963;28;20039;-80
2023/09/30 07:12:46;;;;;;;2.15;1.42;;;19.40;66.60;;;;;;5082192;28;20048;-81
2023/09/30 07:15:12;;;;;;;2.17;1.80;;;19.30;66.30;;;;;;5087441;28;20036;-80
2023/09/30 07:17:38;;;;;;;2.65;1.63;;;19.40;66.30;;;;;;5075701;28;20048;-79
2023/09/30 07:20:04;;;;;;;2.00;1.50;;;19.40;66.50;;;;;;5090532;28;26334;-80
2023/09/30 07:22:31;;;;;;;3.17;1.40;;;19.40;66.60;;;;;;5075442;28;20420;-80
2023/09/30 07:24:57;;;;;;;2.10;1.50;;;19.40;66.90;;;;;;5070060;28;20066;-80
2023/09/30 07:27:23;;;;;;;2.28;1.55;;;19.40;67.00;;;;;;5090058;28;20055;-81
2023/09/30 07:29:49;;;;;;;2.58;1.52;;;19.40;67.30;;;;;;5073472;28;20040;-80
2023/09/30 07:32:14;;;;;;;2.47;1.50;;;19.40;67.40;;;;;;5086134;28;20418;-80
2023/09/30 07:34:40;;;;;;;3.15;1.58;;;19.40;67.60;;;;;;5088239;28;20572;-80
2023/09/30 07:37:06;;;;;;;4.60;1.80;;;19.40;67.60;;;;;;5093494;28;20134;-80
2023/09/30 07:39:31;;;;;;;2.45;1.98;;;19.30;68.00;;;;;;5082461;28;20399;-79
2023/09/30 07:41:57;;;;;;;2.42;1.67;;;19.30;68.40;;;;;;5085665;28;20052;-80
2023/09/30 07:44:23;;;;;;;3.42;1.95;;;19.30;68.40;;;;;;5075964;28;20738;-80
2023/09/30 07:46:48;;;;;;;4.28;2.28;;;19.30;68.60;;;;;;5087372;28;20036;-82
2023/09/30 07:49:14;;;;;;;2.92;1.90;;;19.40;68.90;;;;;;5088756;28;20040;-82
2023/09/30 07:51:40;;;;;;;3.25;2.20;;;19.40;69.10;;;;;;5087194;28;20521;-82
2023/09/30 07:54:05;;;;;;;2.78;1.88;;;19.30;69.40;;;;;;5080762;28;20048;-81
2023/09/30 07:56:31;;;;;;;2.63;2.05;;;19.30;69.50;;;;;;5086122;28;20045;-81
2023/09/30 07:58:57;;;;;;;4.32;1.67;;;19.30;69.70;;;;;;5088409;28;20051;-81
2023/09/30 08:01:22;;;;;;;3.53;1.95;;;19.30;69.80;;;;;;5046351;28;20047;-79
2023/09/30 08:03:48;;;;;;;2.92;2.10;;;19.30;70.10;;;;;;5075906;28;20071;-79
2023/09/30 08:06:13;;;;;;;2.33;1.80;;;19.30;70.10;;;;;;5058901;28;20049;-78
2023/09/30 08:08:39;;;;;;;4.47;2.45;;;19.40;69.90;;;;;;5080267;28;20048;-79
2023/09/30 08:11:05;;;;;;;2.97;2.20;;;19.50;69.90;;;;;;5091050;28;20052;-79
2023/09/30 08:13:32;;;;;;;4.10;2.10;;;19.50;69.60;;;;;;5083786;28;20067;-78
2023/09/30 08:15:58;;;;;;;2.63;1.90;;;19.50;69.70;;;;;;5101476;28;20120;-79
2023/09/30 08:18:24;;;;;;;3.78;2.00;;;19.40;70.00;;;;;;5089157;28;20044;-79
2023/09/30 08:20:49;;;;;;;3.55;2.03;;;19.40;70.00;;;;;;5047564;28;1090829;-79
2023/09/30 08:23:15;;;;;;;2.90;2.22;;;19.50;69.80;;;;;;5076745;28;20151;-80
2023/09/30 08:25:40;;;;;;;3.35;2.13;;;19.50;69.80;;;;;;5088390;28;20051;-79
2023/09/30 08:28:06;;;;;;;2.85;2.55;;;19.60;69.90;;;;;;5084559;28;20505;-79
2023/09/30 08:30:38;;;;;;;2.95;2.35;;;19.50;70.30;;;;;;5083316;28;20049;-78
2023/09/30 08:33:04;;;;;;;3.83;2.15;;;19.40;70.30;;;;;;5085423;28;20109;-79
2023/09/30 08:35:30;;;;;;;4.72;2.22;;;19.50;70.10;;;;;;5076280;28;20429;-80
2023/09/30 08:37:55;;;;;;;3.92;2.70;;;19.60;69.90;;;;;;5081019;28;20045;-83
2023/09/30 08:40:21;;;;;;;4.05;2.38;;;19.60;69.60;;;;;;5090936;28;20083;-82
2023/09/30 08:42:51;;;;;;;2.58;2.00;;;19.70;69.70;;;;;;5080269;28;20056;-80
2023/09/30 08:45:17;;;;;;;3.65;2.40;;;;;;;;;;5091415;28;20044;-79
2023/09/30 08:47:43;;;;;;;2.97;2.35;;;19.70;69.00;;;;;;5071065;28;20101;-80
2023/09/30 08:50:10;;;;;;;6.53;2.00;;;19.70;69.90;;;;;;5073210;28;20455;-82
2023/09/30 08:52:37;;;;;;;5.80;2.55;;;19.70;70.30;;;;;;5084811;28;20040;-80
2023/09/30 08:55:03;;;;;;;4.05;2.40;;;19.80;70.00;;;;;;5092605;28;20041;-81
2023/09/30 08:57:29;;;;;;;3.03;1.98;;;19.80;69.70;;;;;;5093120;28;20118;-80
2023/09/30 08:59:54;;;;;;;3.30;2.30;;;19.90;69.70;;;;;;5082326;28;20054;-80
2023/09/30 09:02:20;;;;;;;2.85;1.67;;;20.00;69.70;;;;;;5077902;28;20521;-81
2023/09/30 09:04:46;;;;;;;2.80;1.98;;;20.00;69.50;;;;;;5091345;28;20078;-80
2023/09/30 09:07:12;;;;;;;2.53;2.03;;;20.10;69.50;;;;;;5095282;28;20032;-81
2023/09/30 09:09:37;;;;;;;2.50;1.70;;;20.10;69.50;;;;;;5082472;28;20386;-80
2023/09/30 09:12:03;;;;;;;2.83;1.88;;;20.10;69.50;;;;;;5080490;28;20116;-80
2023/09/30 09:14:39;;;;;;;2.85;1.90;;;20.20;69.70;;;;;;5090178;28;20070;-80
2023/09/30 09:17:07;;;;;;;2.28;1.70;;;20.20;69.60;;;;;;5082825;28;20052;-81
2023/09/30 09:19:33;;;;;;;3.10;1.70;;;20.20;69.70;;;;;;5084917;28;20105;-82
2023/09/30 09:21:59;;;;;;;2.25;1.60;;;20.30;70.00;;;;;;4729910;28;10000440;-82
2023/09/30 09:24:28;;;;;;;1.17;1.08;;;20.30;69.80;;;;;;5083639;28;20028;-80
2023/09/30 09:27:04;;;;;;;1.88;1.75;;;20.30;69.70;;;;;;5085986;28;20043;-80
2023/09/30 09:29:29;;;;;;;1.83;1.60;;;20.30;69.40;;;;;;5085399;28;20043;-80
2023/09/30 09:32:15;;;;;;;2.22;1.48;;;20.40;69.50;;;;;;5073496;28;20048;-79
2023/09/30 09:34:43;;;;;;;2.05;1.63;;;20.40;69.50;;;;;;5071532;28;20138;-79
2023/09/30 09:37:22;;;;;;;1.98;1.52;;;20.40;69.60;;;;;;5069547;28;20578;-79
2023/09/30 09:39:55;;;;;;;1.77;1.40;;;20.50;69.60;;;;;;5045209;28;20044;-79
2023/09/30 09:42:31;;;;;;;1.63;1.50;;;20.50;69.60;;;;;;5071258;28;20421;-79
2023/09/30 09:45:03;;;;;;;1.60;1.48;;;20.50;69.60;;;;;;5053573;28;20044;-78
2023/09/30 09:47:29;;;;;;;1.92;1.75;;;20.50;69.50;;;;;;5076171;28;20469;-79
2023/09/30 09:49:55;;;;;;;1.88;1.50;;;20.60;69.60;;;;;;5099180;27;20036;-79
2023/09/30 09:52:21;;;;;;;1.70;1.55;;;20.60;69.50;;;;;;5053577;28;20043;-79
2023/09/30 09:54:47;;;;;;;1.90;1.42;;;20.60;69.60;;;;;;5075840;28;20042;-80
2023/09/30 09:57:13;;;;;;;1.88;1.67;;;20.60;69.60;;;;;;5051595;28;20045;-79
2023/09/30 09:59:42;;;;;;;2.13;1.90;;;20.60;69.60;;;;;;5067571;28;20565;-80
2023/09/30 10:02:10;;;;;;;1.50;1.40;;;20.70;69.60;;;;;;5064148;28;20134;-80
2023/09/30 10:04:37;;;;;;;2.15;1.65;;;20.70;69.20;;;;;;5096817;27;20040;-79
2023/09/30 10:07:03;;;;;;;1.60;1.50;;;20.60;69.40;;;;;;5064942;28;20036;-81
2023/09/30 10:09:29;;;;;;;3.25;1.90;;;20.70;69.30;;;;;;5070715;28;20047;-79
2023/09/30 10:12:00;;;;;;;2.45;2.10;;;20.60;69.00;;;;;;5057711;28;20040;-79
2023/09/30 10:14:33;;;;;;;2.05;1.85;;;20.60;69.00;;;;;;5067449;28;20078;-79
2023/09/30 10:16:59;;;;;;;2.85;2.55;;;20.60;69.00;;;;;;5087541;28;20143;-78
2023/09/30 10:19:25;;;;;;;3.67;2.60;;;20.60;69.00;;;;;;5090639;28;20134;-79
2023/09/30 10:22:19;;;;;;;3.00;2.78;;;20.60;69.10;;;;;;5054043;28;20421;-81
2023/09/30 10:24:45;;;;;;;;;;;20.60;69.30;;;;;;5085134;28;20028;-78
2023/09/30 10:27:29;;;;;;;2.88;2.42;;;20.70;69.30;;;;;;5069827;28;20388;-79
2023/09/30 10:30:16;;;;;;;3.20;2.65;;;20.70;69.30;;;;;;5086719;28;20040;-79
2023/09/30 10:32:51;;;;;;;3.63;2.08;;;20.70;69.10;;;;;;5088213;28;20111;-83
2023/09/30 10:35:16;;;;;;;3.38;2.72;;;20.70;69.20;;;;;;5083165;28;20087;-80
2023/09/30 10:37:43;;;;;;;5.15;3.00;;;20.80;69.20;;;;;;5096046;28;20052;-80
2023/09/30 10:40:09;;;;;;;3.00;2.53;;;20.80;69.10;;;;;;5084874;28;20067;-80
2023/09/30 10:42:52;;;;;;;3.17;2.28;;;20.80;69.10;;;;;;5091074;28;20051;-80
2023/09/30 10:45:36;;;;;;;3.33;2.40;;;20.90;69.20;;;;;;5088045;28;20106;-80
2023/09/30 10:48:20;;;;;;;;;;;20.90;69.10;;;;;;5089971;28;20521;-80
2023/09/30 10:50:50;;;;;;;2.58;2.38;;;20.90;69.10;;;;;;5094235;28;19962;-80
2023/09/30 10:53:16;;;;;;;2.83;1.95;;;20.90;69.10;;;;;;5084355;28;20058;-80
2023/09/30 10:55:42;;;;;;;3.58;2.05;;;21.00;69.30;;;;;;5117898;28;20036;-79
2023/09/30 10:58:08;;;;;;;3.30;2.63;;;21.00;69.30;;;;;;5071742;28;20041;-80
2023/09/30 11:00:33;;;;;;;2.53;1.92;;;21.00;69.30;;;;;;5085225;28;20043;-80
2023/09/30 11:02:59;;;;;;;2.83;2.10;;;21.00;69.10;;;;;;5071589;28;20033;-80
2023/09/30 11:05:24;;;;;;;2.15;1.90;;;21.00;69.10;;;;;;5087635;28;20044;-80
2023/09/30 11:07:50;;;;;;;2.22;2.00;;;21.00;69.20;;;;;;5088761;28;20374;-80
2023/09/30 11:10:17;;;;;;;3.33;2.05;;;21.00;69.10;;;;;;5077305;28;20074;-80
2023/09/30 11:12:56;;;;;;;2.50;2.30;;;21.00;69.20;;;;;;5082797;28;20036;-80
2023/09/30 11:15:22;;;;;;;2.20;2.00;;;21.10;69.20;;;;;;5086299;28;20043;-80
2023/09/30 11:17:47;;;;;;;2.05;1.85;;;21.10;69.20;;;;;;5091614;28;20032;-79
2023/09/30 11:20:13;;;;;;;3.40;2.03;;;21.10;69.10;;;;;;5091553;28;20138;-80
2023/09/30 11:22:39;;;;;;;2.22;2.03;;;21.10;69.90;;;;;;5093031;28;20036;-80
2023/09/30 11:25:05;;;;;;;2.30;2.10;;;21.10;69.20;;;;;;5092946;28;20047;-80
2023/09/30 11:27:31;;;;;;;2.20;2.00;;;21.10;69.10;;;;;;5072073;28;20097;-80
2023/09/30 11:29:58;;;;;;;1.90;1.80;;;21.10;70.00;;;;;;5080400;28;20046;-80
2023/09/30 11:32:28;;;;;;;2.13;1.90;;;21.10;69.20;;;;;;5090373;28;20502;-80
2023/09/30 11:34:54;;;;;;;2.95;1.75;;;21.10;69.90;;;;;;5091664;28;20046;-80
2023/09/30 11:37:21;;;;;;;3.10;2.15;;;21.20;69.10;;;;;;5086114;28;20036;-80
2023/09/30 11:39:47;;;;;;;2.85;2.17;;;21.10;69.10;;;;;;5061008;28;20089;-80
2023/09/30 11:42:20;;;;;;;2.80;2.15;;;21.20;69.00;;;;;;5089684;28;20128;-80
2023/09/30 11:44:50;;;;;;;2.10;1.90;;;21.20;69.00;;;;;;5095638;28;20040;-80
2023/09/30 11:47:16;;;;;;;3.10;2.30;;;21.20;68.90;;;;;;5075125;28;20033;-80
2023/09/30 11:49:44;;;;;;;2.42;2.08;;;21.20;69.00;;;;;;5084614;28;20134;-78
2023/09/30 11:52:16;;;;;;;2.25;2.05;;;21.20;69.20;;;;;;5094382;28;20047;-80
2023/09/30 11:54:46;;;;;;;2.63;2.10;;;21.20;69.10;;;;;;5076559;28;20064;-80
2023/09/30 11:57:18;;;;;;;2.05;1.92;;;21.20;69.00;;;;;;5080726;28;20132;-81
2023/09/30 11:59:45;;;;;;;2.40;2.20;;;21.20;69.00;;;;;;5079498;28;20182;-80
2023/09/30 12:02:11;;;;;;;2.17;1.98;;;21.20;69.00;;;;;;5091473;28;20111;-81
2023/09/30 12:04:37;;;;;;;2.63;2.40;;;21.20;69.00;;;;;;5088454;28;20048;-81
2023/09/30 12:07:02;;;;;;;3.28;2.55;;;21.30;69.20;;;;;;5084352;28;20059;-77
2023/09/30 12:09:29;;;;;;;1.98;1.88;;;21.30;69.00;;;;;;5089609;28;20044;-79
2023/09/30 12:11:57;;;;;;;2.50;1.90;;;21.30;68.90;;;;;;4733793;28;10000497;-80
2023/09/30 12:14:23;;;;;;;4.40;2.40;;;21.30;68.90;;;;;;5081783;28;20056;-79
2023/09/30 12:16:49;;;;;;;2.55;2.22;;;21.30;69.00;;;;;;5083545;28;20036;-80
2023/09/30 12:19:15;;;;;;;2.20;2.00;;;21.30;69.10;;;;;;5087246;28;20043;-79
2023/09/30 12:21:41;;;;;;;5.72;2.08;;;21.30;68.90;;;;;;5073977;28;20052;-79
2023/09/30 12:24:09;;;;;;;3.60;2.60;;;21.30;69.00;;;;;;5087687;28;20048;-79
2023/09/30 12:26:35;;;;;;;3.58;2.90;;;21.30;68.90;;;;;;5090870;28;20092;-80
2023/09/30 12:29:00;;;;;;;5.15;2.53;;;21.30;68.80;;;;;;5084026;28;20057;-80
2023/09/30 12:31:26;;;;;;;3.20;2.75;;;21.30;68.80;;;;;;5090069;28;20147;-80
2023/09/30 12:33:53;;;;;;;4.13;2.65;;;21.30;69.00;;;;;;5080599;28;20101;-83
2023/09/30 12:36:19;;;;;;;4.90;2.72;;;21.30;69.10;;;;;;5062287;28;20040;-81
2023/09/30 12:38:45;;;;;;;2.85;2.53;;;21.30;69.30;;;;;;5086426;28;20040;-78
2023/09/30 12:41:10;;;;;;;5.15;3.05;;;21.30;69.20;;;;;;5058049;28;20506;-80
2023/09/30 12:43:37;;;;;;;3.58;2.65;;;21.30;69.00;;;;;;5073507;28;20409;-80
2023/09/30 12:46:04;;;;;;;4.00;2.78;;;21.30;69.00;;;;;;5089347;28;20032;-80